sensor_id;sensor_type;location;lat;lon;timestamp;pressure;altitude;pressure_sealevel;temperature;humidity
48553;BME280;34335;51.566;6.994;2023-04-26T00:01:24;101294.38;;;2.30;100.00
48553;BME280;34335;51.566;6.994;2023-04-26T00:03:51;101299.50;;;2.30;100.00
48553;BME280;34335;51.566;6.994;2023-04-26T00:06:16;101302.03;;;2.28;100.00
48553;BME280;34335;51.566;6.994;2023-04-26T00:08:42;101296.69;;;2.24;100.00
48553;BME280;34335;51.566;6.994;2023-04-26T00:11:08;101296.59;;;2.22;100.00
48553;BME280;34335;51.566;6.994;2023-04-26T00:13:33;101298.06;;;2.15;100.00
48553;BME280;34335;51.566;6.994;2023-04-26T00:15:58;101293.59;;;2.11;100.00
48553;BME280;34335;51.566;6.994;2023-04-26T00:18:24;101289.97;;;2.06;100.00
48553;BME280;34335;51.566;6.994;2023-04-26T00:20:49;101291.31;;;1.98;100.00
48553;BME280;34335;51.566;6.994;2023-04-26T00:23:14;101297.19;;;1.95;100.00
48553;BME280;34335;51.566;6.994;2023-04-26T00:25:40;101292.00;;;1.94;100.00
48553;BME280;34335;51.566;6.994;2023-04-26T00:28:05;101276.47;;;1.91;100.00
48553;BME280;34335;51.566;6.994;2023-04-26T00:30:31;101289.16;;;1.88;100.00
48553;BME280;34335;51.566;6.994;2023-04-26T00:32:58;101289.03;;;1.84;100.00
48553;BME280;34335;51.566;6.994;2023-04-26T00:35:23;101286.31;;;1.81;100.00
48553;BME280;34335;51.566;6.994;2023-04-26T00:37:49;101276.75;;;1.77;100.00
48553;BME280;34335;51.566;6.994;2023-04-26T00:40:14;101280.22;;;1.79;100.00
48553;BME280;34335;51.566;6.994;2023-04-26T00:42:41;101279.97;;;1.73;100.00
48553;BME280;34335;51.566;6.994;2023-04-26T00:45:07;101284.09;;;1.69;100.00
48553;BME280;34335;51.566;6.994;2023-04-26T00:47:32;101282.13;;;1.64;100.00
48553;BME280;34335;51.566;6.994;2023-04-26T00:49:59;101283.53;;;1.57;100.00
48553;BME280;34335;51.566;6.994;2023-04-26T00:52:26;101282.53;;;1.53;100.00
48553;BME280;34335;51.566;6.994;2023-04-26T00:54:52;101279.81;;;1.50;100.00
48553;BME280;34335;51.566;6.994;2023-04-26T00:57:17;101272.00;;;1.47;100.00
48553;BME280;34335;51.566;6.994;2023-04-26T00:59:43;101267.59;;;1.45;100.00
48553;BME280;34335;51.566;6.994;2023-04-26T01:02:08;101267.53;;;1.43;100.00
48553;BME280;34335;51.566;6.994;2023-04-26T01:04:33;101268.34;;;1.42;100.00
48553;BME280;34335;51.566;6.994;2023-04-26T01:07:00;101268.34;;;1.42;100.00
48553;BME280;34335;51.566;6.994;2023-04-26T01:09:27;101262.00;;;1.34;100.00
48553;BME280;34335;51.566;6.994;2023-04-26T01:11:53;101266.03;;;1.29;100.00
48553;BME280;34335;51.566;6.994;2023-04-26T01:14:22;101267.66;;;1.27;100.00
48553;BME280;34335;51.566;6.994;2023-04-26T01:16:48;101265.84;;;1.24;100.00
48553;BME280;34335;51.566;6.994;2023-04-26T01:19:14;101270.97;;;1.24;100.00
48553;BME280;34335;51.566;6.994;2023-04-26T01:21:41;101274.06;;;1.36;100.00
48553;BME280;34335;51.566;6.994;2023-04-26T01:24:09;101283.81;;;1.26;100.00
48553;BME280;34335;51.566;6.994;2023-04-26T01:26:34;101281.00;;;1.19;100.00
48553;BME280;34335;51.566;6.994;2023-04-26T01:29:00;101285.59;;;1.08;100.00
48553;BME280;34335;51.566;6.994;2023-04-26T01:31:25;101281.84;;;1.02;100.00
48553;BME280;34335;51.566;6.994;2023-04-26T01:33:51;101290.22;;;0.98;100.00
48553;BME280;34335;51.566;6.994;2023-04-26T01:36:16;101284.13;;;0.96;100.00
48553;BME280;34335;51.566;6.994;2023-04-26T01:38:41;101288.47;;;0.97;100.00
48553;BME280;34335;51.566;6.994;2023-04-26T01:41:06;101289.03;;;0.91;100.00
48553;BME280;34335;51.566;6.994;2023-04-26T01:43:32;101282.00;;;0.87;100.00
48553;BME280;34335;51.566;6.994;2023-04-26T01:45:57;101274.94;;;0.81;100.00
48553;BME280;34335;51.566;6.994;2023-04-26T01:48:22;101279.16;;;0.81;100.00
48553;BME280;34335;51.566;6.994;2023-04-26T01:50:48;101278.13;;;0.77;100.00
48553;BME280;34335;51.566;6.994;2023-04-26T01:53:13;101282.31;;;0.75;100.00
48553;BME280;34335;51.566;6.994;2023-04-26T01:55:38;101288.16;;;0.72;100.00
48553;BME280;34335;51.566;6.994;2023-04-26T01:58:03;101283.69;;;0.68;100.00
48553;BME280;34335;51.566;6.994;2023-04-26T02:00:29;101292.31;;;0.70;100.00
48553;BME280;34335;51.566;6.994;2023-04-26T02:02:55;101289.47;;;0.64;100.00
48553;BME280;34335;51.566;6.994;2023-04-26T02:05:21;101286.69;;;0.59;100.00
48553;BME280;34335;51.566;6.994;2023-04-26T02:07:46;101288.50;;;0.62;100.00
48553;BME280;34335;51.566;6.994;2023-04-26T02:10:12;101290.91;;;0.59;100.00
48553;BME280;34335;51.566;6.994;2023-04-26T02:12:37;101288.00;;;0.69;100.00
48553;BME280;34335;51.566;6.994;2023-04-26T02:15:03;101285.41;;;0.86;100.00
48553;BME280;34335;51.566;6.994;2023-04-26T02:17:29;101287.75;;;0.81;100.00
48553;BME280;34335;51.566;6.994;2023-04-26T02:19:54;101287.25;;;0.54;100.00
48553;BME280;34335;51.566;6.994;2023-04-26T02:22:20;101285.28;;;0.48;100.00
48553;BME280;34335;51.566;6.994;2023-04-26T02:24:49;101288.56;;;0.45;100.00
48553;BME280;34335;51.566;6.994;2023-04-26T02:27:14;101288.84;;;0.34;100.00
48553;BME280;34335;51.566;6.994;2023-04-26T02:29:40;101281.00;;;0.30;100.00
48553;BME280;34335;51.566;6.994;2023-04-26T02:32:05;101289.25;;;0.25;100.00
48553;BME280;34335;51.566;6.994;2023-04-26T02:34:31;101284.06;;;0.23;100.00
48553;BME280;34335;51.566;6.994;2023-04-26T02:36:57;101283.22;;;0.24;100.00
48553;BME280;34335;51.566;6.994;2023-04-26T02:39:22;101284.06;;;0.23;100.00
48553;BME280;34335;51.566;6.994;2023-04-26T02:41:47;101282.88;;;0.17;100.00
48553;BME280;34335;51.566;6.994;2023-04-26T02:44:13;101282.31;;;0.22;100.00
48553;BME280;34335;51.566;6.994;2023-04-26T02:46:38;101278.09;;;0.06;100.00
48553;BME280;34335;51.566;6.994;2023-04-26T02:49:04;101277.19;;;0.06;100.00
48553;BME280;34335;51.566;6.994;2023-04-26T02:51:31;101283.13;;;0.05;100.00
48553;BME280;34335;51.566;6.994;2023-04-26T02:53:57;101284.56;;;-0.01;100.00
48553;BME280;34335;51.566;6.994;2023-04-26T02:56:23;101291.25;;;-0.03;100.00
48553;BME280;34335;51.566;6.994;2023-04-26T02:58:48;101284.16;;;-0.08;100.00
48553;BME280;34335;51.566;6.994;2023-04-26T03:01:14;101284.31;;;-0.05;100.00
48553;BME280;34335;51.566;6.994;2023-04-26T03:03:39;101284.25;;;-0.07;100.00
48553;BME280;34335;51.566;6.994;2023-04-26T03:06:05;101280.50;;;-0.13;100.00
48553;BME280;34335;51.566;6.994;2023-04-26T03:08:30;101274.41;;;-0.16;100.00
48553;BME280;34335;51.566;6.994;2023-04-26T03:10:56;101282.09;;;-0.16;100.00
48553;BME280;34335;51.566;6.994;2023-04-26T03:13:22;101277.69;;;-0.18;100.00
48553;BME280;34335;51.566;6.994;2023-04-26T03:15:47;101281.38;;;-0.13;100.00
48553;BME280;34335;51.566;6.994;2023-04-26T03:18:14;101278.19;;;-0.09;100.00
48553;BME280;34335;51.566;6.994;2023-04-26T03:20:40;101279.63;;;0.03;100.00
48553;BME280;34335;51.566;6.994;2023-04-26T03:23:06;101279.28;;;-0.04;100.00
48553;BME280;34335;51.566;6.994;2023-04-26T03:25:32;101279.69;;;-0.12;100.00
48553;BME280;34335;51.566;6.994;2023-04-26T03:27:57;101278.44;;;-0.21;100.00
48553;BME280;34335;51.566;6.994;2023-04-26T03:30:22;101274.44;;;-0.32;100.00
48553;BME280;34335;51.566;6.994;2023-04-26T03:32:48;101276.25;;;-0.29;100.00
48553;BME280;34335;51.566;6.994;2023-04-26T03:35:13;101268.28;;;-0.36;100.00
48553;BME280;34335;51.566;6.994;2023-04-26T03:37:38;101267.47;;;-0.35;100.00
48553;BME280;34335;51.566;6.994;2023-04-26T03:40:06;101275.22;;;-0.17;100.00
48553;BME280;34335;51.566;6.994;2023-04-26T03:42:32;101266.03;;;-0.29;100.00
48553;BME280;34335;51.566;6.994;2023-04-26T03:44:58;101259.34;;;-0.44;100.00
48553;BME280;34335;51.566;6.994;2023-04-26T03:47:23;101256.28;;;-0.37;100.00
48553;BME280;34335;51.566;6.994;2023-04-26T03:49:48;101258.38;;;-0.46;100.00
48553;BME280;34335;51.566;6.994;2023-04-26T03:52:14;101258.84;;;-0.20;100.00
48553;BME280;34335;51.566;6.994;2023-04-26T03:54:39;101260.50;;;-0.37;100.00
48553;BME280;34335;51.566;6.994;2023-04-26T03:57:04;101264.03;;;-0.35;100.00
48553;BME280;34335;51.566;6.994;2023-04-26T03:59:30;101261.38;;;-0.04;100.00
48553;BME280;34335;51.566;6.994;2023-04-26T04:01:55;101254.84;;;-0.32;100.00
48553;BME280;34335;51.566;6.994;2023-04-26T04:04:20;101264.19;;;-0.32;100.00
48553;BME280;34335;51.566;6.994;2023-04-26T04:06:46;101264.59;;;-0.41;100.00
48553;BME280;34335;51.566;6.994;2023-04-26T04:09:11;101256.06;;;-0.58;100.00
48553;BME280;34335;51.566;6.994;2023-04-26T04:11:36;101259.66;;;-0.54;100.00
48553;BME280;34335;51.566;6.994;2023-04-26T04:14:02;101266.19;;;-0.26;100.00
48553;BME280;34335;51.566;6.994;2023-04-26T04:16:27;101266.81;;;-0.30;100.00
48553;BME280;34335;51.566;6.994;2023-04-26T04:18:53;101265.00;;;-0.50;100.00
48553;BME280;34335;51.566;6.994;2023-04-26T04:21:18;101261.34;;;-0.70;100.00
48553;BME280;34335;51.566;6.994;2023-04-26T04:23:43;101264.47;;;-0.75;100.00
48553;BME280;34335;51.566;6.994;2023-04-26T04:26:09;101264.38;;;-0.77;100.00
48553;BME280;34335;51.566;6.994;2023-04-26T04:28:37;101261.59;;;-0.82;100.00
48553;BME280;34335;51.566;6.994;2023-04-26T04:31:03;101265.44;;;-0.73;100.00
48553;BME280;34335;51.566;6.994;2023-04-26T04:33:28;101263.97;;;-0.53;100.00
48553;BME280;34335;51.566;6.994;2023-04-26T04:35:53;101269.50;;;-0.60;100.00
48553;BME280;34335;51.566;6.994;2023-04-26T04:38:19;101270.03;;;-0.35;100.00
48553;BME280;34335;51.566;6.994;2023-04-26T04:40:47;101272.59;;;-0.18;100.00
48553;BME280;34335;51.566;6.994;2023-04-26T04:43:14;101275.41;;;-0.30;100.00
48553;BME280;34335;51.566;6.994;2023-04-26T04:45:39;101275.16;;;-0.66;100.00
48553;BME280;34335;51.566;6.994;2023-04-26T04:48:05;101280.75;;;-0.73;100.00
48553;BME280;34335;51.566;6.994;2023-04-26T04:50:30;101273.50;;;-0.66;100.00
48553;BME280;34335;51.566;6.994;2023-04-26T04:52:56;101274.00;;;-0.56;100.00
48553;BME280;34335;51.566;6.994;2023-04-26T04:55:21;101280.88;;;-0.39;100.00
48553;BME280;34335;51.566;6.994;2023-04-26T04:57:47;101281.13;;;-0.34;100.00
48553;BME280;34335;51.566;6.994;2023-04-26T05:00:12;101291.72;;;-0.43;100.00
48553;BME280;34335;51.566;6.994;2023-04-26T05:02:38;101291.34;;;-0.51;100.00
48553;BME280;34335;51.566;6.994;2023-04-26T05:05:04;101288.00;;;-0.50;100.00
48553;BME280;34335;51.566;6.994;2023-04-26T05:07:33;101292.06;;;-0.53;100.00
48553;BME280;34335;51.566;6.994;2023-04-26T05:09:58;101290.94;;;-0.58;100.00
48553;BME280;34335;51.566;6.994;2023-04-26T05:12:24;101293.00;;;-0.51;100.00
48553;BME280;34335;51.566;6.994;2023-04-26T05:14:49;101296.72;;;-0.29;100.00
48553;BME280;34335;51.566;6.994;2023-04-26T05:17:14;101299.72;;;-0.53;100.00
48553;BME280;34335;51.566;6.994;2023-04-26T05:19:39;101304.06;;;-0.19;100.00
48553;BME280;34335;51.566;6.994;2023-04-26T05:22:05;101298.94;;;-0.19;100.00
48553;BME280;34335;51.566;6.994;2023-04-26T05:24:31;101301.16;;;0.24;100.00
48553;BME280;34335;51.566;6.994;2023-04-26T05:26:57;101309.16;;;0.30;100.00
48553;BME280;34335;51.566;6.994;2023-04-26T05:29:23;101308.94;;;0.60;100.00
48553;BME280;34335;51.566;6.994;2023-04-26T05:31:48;101309.88;;;0.63;100.00
48553;BME280;34335;51.566;6.994;2023-04-26T05:34:13;101311.84;;;0.68;100.00
48553;BME280;34335;51.566;6.994;2023-04-26T05:36:39;101317.13;;;0.71;100.00
48553;BME280;34335;51.566;6.994;2023-04-26T05:39:04;101315.59;;;0.75;100.00
48553;BME280;34335;51.566;6.994;2023-04-26T05:41:30;101312.75;;;0.69;100.00
48553;BME280;34335;51.566;6.994;2023-04-26T05:43:55;101316.41;;;0.92;100.00
48553;BME280;34335;51.566;6.994;2023-04-26T05:46:21;101319.19;;;0.97;100.00
48553;BME280;34335;51.566;6.994;2023-04-26T05:48:46;101324.91;;;1.09;100.00
48553;BME280;34335;51.566;6.994;2023-04-26T05:51:12;101328.88;;;1.02;100.00
48553;BME280;34335;51.566;6.994;2023-04-26T05:53:37;101325.63;;;1.06;100.00
48553;BME280;34335;51.566;6.994;2023-04-26T05:56:03;101326.53;;;1.07;100.00
48553;BME280;34335;51.566;6.994;2023-04-26T05:58:28;101331.56;;;1.23;100.00
48553;BME280;34335;51.566;6.994;2023-04-26T06:00:53;101333.75;;;0.98;100.00
48553;BME280;34335;51.566;6.994;2023-04-26T06:03:19;101333.09;;;1.38;100.00
48553;BME280;34335;51.566;6.994;2023-04-26T06:05:44;101327.97;;;1.38;100.00
48553;BME280;34335;51.566;6.994;2023-04-26T06:08:09;101325.31;;;1.54;100.00
48553;BME280;34335;51.566;6.994;2023-04-26T06:10:35;101324.97;;;1.66;100.00
48553;BME280;34335;51.566;6.994;2023-04-26T06:13:02;101329.78;;;1.59;100.00
48553;BME280;34335;51.566;6.994;2023-04-26T06:15:27;101335.13;;;2.02;100.00
48553;BME280;34335;51.566;6.994;2023-04-26T06:17:52;101328.16;;;2.20;100.00
48553;BME280;34335;51.566;6.994;2023-04-26T06:20:18;101338.00;;;2.49;100.00
48553;BME280;34335;51.566;6.994;2023-04-26T06:22:43;101338.31;;;2.57;100.00
48553;BME280;34335;51.566;6.994;2023-04-26T06:25:09;101334.75;;;2.75;100.00
48553;BME280;34335;51.566;6.994;2023-04-26T06:27:34;101335.69;;;2.98;100.00
48553;BME280;34335;51.566;6.994;2023-04-26T06:29:59;101335.00;;;3.02;100.00
48553;BME280;34335;51.566;6.994;2023-04-26T06:32:25;101338.41;;;3.24;100.00
48553;BME280;34335;51.566;6.994;2023-04-26T06:34:50;101338.94;;;3.38;100.00
48553;BME280;34335;51.566;6.994;2023-04-26T06:37:16;101336.69;;;3.46;100.00
48553;BME280;34335;51.566;6.994;2023-04-26T06:39:41;101341.53;;;3.61;100.00
48553;BME280;34335;51.566;6.994;2023-04-26T06:42:06;101344.75;;;3.78;100.00
48553;BME280;34335;51.566;6.994;2023-04-26T06:44:32;101345.88;;;4.09;100.00
48553;BME280;34335;51.566;6.994;2023-04-26T06:46:57;101341.56;;;4.33;100.00
48553;BME280;34335;51.566;6.994;2023-04-26T06:49:23;101342.81;;;4.45;100.00
48553;BME280;34335;51.566;6.994;2023-04-26T06:51:49;101338.38;;;4.41;100.00
48553;BME280;34335;51.566;6.994;2023-04-26T06:54:17;101335.13;;;4.46;100.00
48553;BME280;34335;51.566;6.994;2023-04-26T06:56:42;101335.78;;;4.66;100.00
48553;BME280;34335;51.566;6.994;2023-04-26T06:59:07;101329.16;;;4.73;100.00
48553;BME280;34335;51.566;6.994;2023-04-26T07:01:34;101329.94;;;4.71;100.00
48553;BME280;34335;51.566;6.994;2023-04-26T07:04:03;101334.38;;;4.75;100.00
48553;BME280;34335;51.566;6.994;2023-04-26T07:06:29;101325.03;;;4.78;100.00
48553;BME280;34335;51.566;6.994;2023-04-26T07:08:57;101325.38;;;4.89;100.00
48553;BME280;34335;51.566;6.994;2023-04-26T07:11:22;101327.84;;;4.86;100.00
48553;BME280;34335;51.566;6.994;2023-04-26T07:13:47;101331.34;;;4.88;100.00
48553;BME280;34335;51.566;6.994;2023-04-26T07:16:13;101331.94;;;5.07;100.00
48553;BME280;34335;51.566;6.994;2023-04-26T07:18:39;101333.69;;;5.08;100.00
48553;BME280;34335;51.566;6.994;2023-04-26T07:21:05;101326.22;;;5.15;100.00
48553;BME280;34335;51.566;6.994;2023-04-26T07:23:31;101336.09;;;5.29;100.00
48553;BME280;34335;51.566;6.994;2023-04-26T07:25:56;101327.97;;;5.45;100.00
48553;BME280;34335;51.566;6.994;2023-04-26T07:28:22;101334.47;;;5.61;100.00
48553;BME280;34335;51.566;6.994;2023-04-26T07:30:47;101336.66;;;5.78;100.00
48553;BME280;34335;51.566;6.994;2023-04-26T07:33:12;101331.59;;;5.81;100.00
48553;BME280;34335;51.566;6.994;2023-04-26T07:35:37;101334.63;;;5.97;100.00
48553;BME280;34335;51.566;6.994;2023-04-26T07:38:03;101335.06;;;6.12;100.00
48553;BME280;34335;51.566;6.994;2023-04-26T07:40:29;101331.75;;;6.16;100.00
48553;BME280;34335;51.566;6.994;2023-04-26T07:42:55;101333.19;;;6.38;100.00
48553;BME280;34335;51.566;6.994;2023-04-26T07:45:20;101331.84;;;6.53;100.00
48553;BME280;34335;51.566;6.994;2023-04-26T07:47:46;101334.69;;;6.30;100.00
48553;BME280;34335;51.566;6.994;2023-04-26T07:50:11;101335.75;;;6.38;100.00
48553;BME280;34335;51.566;6.994;2023-04-26T07:52:37;101340.09;;;6.39;100.00
48553;BME280;34335;51.566;6.994;2023-04-26T07:55:02;101340.81;;;6.34;100.00
48553;BME280;34335;51.566;6.994;2023-04-26T07:57:28;101339.75;;;6.27;100.00
48553;BME280;34335;51.566;6.994;2023-04-26T07:59:53;101342.47;;;6.32;100.00
48553;BME280;34335;51.566;6.994;2023-04-26T08:02:18;101335.72;;;6.70;100.00
48553;BME280;34335;51.566;6.994;2023-04-26T08:04:48;101341.53;;;6.62;100.00
48553;BME280;34335;51.566;6.994;2023-04-26T08:07:14;101335.63;;;6.66;100.00
48553;BME280;34335;51.566;6.994;2023-04-26T08:09:40;101341.88;;;6.42;100.00
48553;BME280;34335;51.566;6.994;2023-04-26T08:12:06;101331.13;;;6.59;100.00
48553;BME280;34335;51.566;6.994;2023-04-26T08:14:33;101338.56;;;6.46;100.00
48553;BME280;34335;51.566;6.994;2023-04-26T08:16:59;101337.53;;;6.75;100.00
48553;BME280;34335;51.566;6.994;2023-04-26T08:19:25;101328.44;;;6.54;100.00
48553;BME280;34335;51.566;6.994;2023-04-26T08:21:54;101326.66;;;6.86;100.00
48553;BME280;34335;51.566;6.994;2023-04-26T08:24:20;101331.78;;;6.51;100.00
48553;BME280;34335;51.566;6.994;2023-04-26T08:26:45;101327.69;;;6.60;100.00
48553;BME280;34335;51.566;6.994;2023-04-26T08:29:10;101331.75;;;6.50;100.00
48553;BME280;34335;51.566;6.994;2023-04-26T08:31:35;101330.03;;;6.50;100.00
48553;BME280;34335;51.566;6.994;2023-04-26T08:34:01;101332.25;;;6.70;100.00
48553;BME280;34335;51.566;6.994;2023-04-26T08:36:26;101333.56;;;6.88;100.00
48553;BME280;34335;51.566;6.994;2023-04-26T08:38:51;101340.31;;;6.47;100.00
48553;BME280;34335;51.566;6.994;2023-04-26T08:41:21;101339.25;;;6.74;100.00
48553;BME280;34335;51.566;6.994;2023-04-26T08:43:48;101336.53;;;7.05;100.00
48553;BME280;34335;51.566;6.994;2023-04-26T08:46:14;101349.72;;;6.79;100.00
48553;BME280;34335;51.566;6.994;2023-04-26T08:48:43;101339.94;;;7.02;100.00
48553;BME280;34335;51.566;6.994;2023-04-26T08:51:11;101336.09;;;7.23;100.00
48553;BME280;34335;51.566;6.994;2023-04-26T08:53:38;101334.72;;;7.78;100.00
48553;BME280;34335;51.566;6.994;2023-04-26T08:56:05;101335.41;;;8.14;100.00
48553;BME280;34335;51.566;6.994;2023-04-26T08:58:32;101340.41;;;8.49;100.00
48553;BME280;34335;51.566;6.994;2023-04-26T09:00:57;101333.59;;;8.10;100.00
48553;BME280;34335;51.566;6.994;2023-04-26T09:03:24;101331.59;;;8.41;100.00
48553;BME280;34335;51.566;6.994;2023-04-26T09:05:50;101340.78;;;8.25;100.00
48553;BME280;34335;51.566;6.994;2023-04-26T09:08:16;101336.69;;;8.36;98.51
48553;BME280;34335;51.566;6.994;2023-04-26T09:13:57;101336.16;;;8.07;100.00
48553;BME280;34335;51.566;6.994;2023-04-26T09:16:35;101340.16;;;7.91;92.08
48553;BME280;34335;51.566;6.994;2023-04-26T09:19:03;101339.97;;;8.27;99.52
48553;BME280;34335;51.566;6.994;2023-04-26T09:21:28;101342.16;;;7.63;96.91
48553;BME280;34335;51.566;6.994;2023-04-26T09:24:02;101341.34;;;8.08;100.00
48553;BME280;34335;51.566;6.994;2023-04-26T09:26:29;101337.50;;;7.88;93.34
48553;BME280;34335;51.566;6.994;2023-04-26T09:29:15;101343.66;;;7.52;88.94
48553;BME280;34335;51.566;6.994;2023-04-26T09:31:43;101346.91;;;7.43;89.51
48553;BME280;34335;51.566;6.994;2023-04-26T09:34:10;101339.50;;;7.60;92.73
48553;BME280;34335;51.566;6.994;2023-04-26T09:36:49;101344.88;;;7.69;93.94
48553;BME280;34335;51.566;6.994;2023-04-26T09:39:29;101349.97;;;8.07;91.47
48553;BME280;34335;51.566;6.994;2023-04-26T09:41:56;101336.53;;;8.27;100.00
48553;BME280;34335;51.566;6.994;2023-04-26T09:44:22;101336.53;;;8.27;90.36
48553;BME280;34335;51.566;6.994;2023-04-26T09:47:01;101337.50;;;8.34;89.56
48553;BME280;34335;51.566;6.994;2023-04-26T09:49:32;101338.28;;;8.28;90.89
48553;BME280;34335;51.566;6.994;2023-04-26T09:52:04;101332.19;;;8.26;90.41
48553;BME280;34335;51.566;6.994;2023-04-26T09:54:45;101334.78;;;8.26;93.25
48553;BME280;34335;51.566;6.994;2023-04-26T09:57:15;101329.97;;;8.00;87.06
48553;BME280;34335;51.566;6.994;2023-04-26T09:59:45;101321.59;;;8.61;100.00
48553;BME280;34335;51.566;6.994;2023-04-26T10:02:22;101319.78;;;9.11;100.00
48553;BME280;34335;51.566;6.994;2023-04-26T10:04:49;101326.06;;;8.70;86.94
48553;BME280;34335;51.566;6.994;2023-04-26T10:07:17;101321.88;;;8.77;94.71
48553;BME280;34335;51.566;6.994;2023-04-26T10:09:42;101316.66;;;8.75;94.82
48553;BME280;34335;51.566;6.994;2023-04-26T10:12:09;101323.22;;;8.54;85.82
48553;BME280;34335;51.566;6.994;2023-04-26T10:14:35;101323.00;;;8.43;84.73
48553;BME280;34335;51.566;6.994;2023-04-26T10:17:02;101321.72;;;8.67;88.12
48553;BME280;34335;51.566;6.994;2023-04-26T10:19:29;101320.22;;;8.33;83.74
48553;BME280;34335;51.566;6.994;2023-04-26T10:21:59;101321.75;;;8.70;83.71
48553;BME280;34335;51.566;6.994;2023-04-26T10:24:26;101322.09;;;8.91;85.67
48553;BME280;34335;51.566;6.994;2023-04-26T10:26:52;101321.41;;;8.49;83.47
48553;BME280;34335;51.566;6.994;2023-04-26T10:29:23;101321.75;;;8.70;85.34
48553;BME280;34335;51.566;6.994;2023-04-26T10:34:29;101311.19;;;8.58;95.32
48553;BME280;34335;51.566;6.994;2023-04-26T10:39:32;101319.06;;;8.17;92.93
48553;BME280;34335;51.566;6.994;2023-04-26T10:42:23;101314.78;;;8.20;88.58
48553;BME280;34335;51.566;6.994;2023-04-26T10:44:50;101319.56;;;8.45;86.13
48553;BME280;34335;51.566;6.994;2023-04-26T10:47:26;101317.34;;;8.65;83.14
48553;BME280;34335;51.566;6.994;2023-04-26T10:50:00;101318.53;;;8.35;83.04
48553;BME280;34335;51.566;6.994;2023-04-26T10:52:26;101314.53;;;8.51;85.12
48553;BME280;34335;51.566;6.994;2023-04-26T10:54:55;101320.69;;;9.13;88.55
48553;BME280;34335;51.566;6.994;2023-04-26T10:57:23;101312.84;;;9.73;81.96
48553;BME280;34335;51.566;6.994;2023-04-26T11:02:57;101312.25;;;9.29;75.83
48553;BME280;34335;51.566;6.994;2023-04-26T11:05:50;101313.53;;;9.59;80.74
48553;BME280;34335;51.566;6.994;2023-04-26T11:10:49;101301.53;;;9.03;69.23
48553;BME280;34335;51.566;6.994;2023-04-26T11:13:16;101299.91;;;8.56;67.61
48553;BME280;34335;51.566;6.994;2023-04-26T11:15:42;101296.41;;;9.08;73.15
48553;BME280;34335;51.566;6.994;2023-04-26T11:18:07;101300.19;;;9.31;73.63
48553;BME280;34335;51.566;6.994;2023-04-26T11:20:33;101302.38;;;9.02;68.80
48553;BME280;34335;51.566;6.994;2023-04-26T11:22:59;101299.47;;;9.43;75.15
48553;BME280;34335;51.566;6.994;2023-04-26T11:25:26;101304.00;;;9.58;72.38
48553;BME280;34335;51.566;6.994;2023-04-26T11:28:01;101297.03;;;9.54;69.81
48553;BME280;34335;51.566;6.994;2023-04-26T11:30:28;101304.03;;;9.61;71.71
48553;BME280;34335;51.566;6.994;2023-04-26T11:32:54;101294.97;;;10.02;74.01
48553;BME280;34335;51.566;6.994;2023-04-26T11:35:23;101297.38;;;9.82;67.37
48553;BME280;34335;51.566;6.994;2023-04-26T11:37:50;101292.06;;;9.74;70.98
48553;BME280;34335;51.566;6.994;2023-04-26T11:40:17;101291.22;;;9.75;70.32
48553;BME280;34335;51.566;6.994;2023-04-26T11:42:45;101295.16;;;9.44;64.43
48553;BME280;34335;51.566;6.994;2023-04-26T11:45:11;101291.91;;;9.60;70.74
48553;BME280;34335;51.566;6.994;2023-04-26T11:47:36;101294.38;;;9.51;69.71
48553;BME280;34335;51.566;6.994;2023-04-26T11:50:02;101287.03;;;9.88;73.73
48553;BME280;34335;51.566;6.994;2023-04-26T11:52:28;101285.38;;;9.96;69.05
48553;BME280;34335;51.566;6.994;2023-04-26T11:55:05;101289.00;;;9.37;62.39
48553;BME280;34335;51.566;6.994;2023-04-26T11:57:32;101283.91;;;9.43;71.63
48553;BME280;34335;51.566;6.994;2023-04-26T12:00:12;101281.81;;;9.85;71.28
48553;BME280;34335;51.566;6.994;2023-04-26T12:02:42;101292.00;;;9.66;66.24
48553;BME280;34335;51.566;6.994;2023-04-26T12:05:08;101289.81;;;10.05;73.29
48553;BME280;34335;51.566;6.994;2023-04-26T12:07:34;101291.25;;;10.65;70.76
48553;BME280;34335;51.566;6.994;2023-04-26T12:10:13;101295.25;;;10.28;65.40
48553;BME280;34335;51.566;6.994;2023-04-26T12:12:43;101277.28;;;10.52;72.46
48553;BME280;34335;51.566;6.994;2023-04-26T12:15:10;101289.41;;;10.47;63.79
48553;BME280;34335;51.566;6.994;2023-04-26T12:17:36;101286.34;;;10.03;66.34
48553;BME280;34335;51.566;6.994;2023-04-26T12:20:08;101285.09;;;10.53;68.66
48553;BME280;34335;51.566;6.994;2023-04-26T12:22:34;101282.50;;;10.50;62.04
48553;BME280;34335;51.566;6.994;2023-04-26T12:25:05;101281.41;;;11.48;65.72
48553;BME280;34335;51.566;6.994;2023-04-26T12:27:31;101277.13;;;11.66;69.09
48553;BME280;34335;51.566;6.994;2023-04-26T12:29:56;101273.59;;;11.48;60.21
48553;BME280;34335;51.566;6.994;2023-04-26T12:32:22;101277.66;;;11.03;60.63
48553;BME280;34335;51.566;6.994;2023-04-26T12:34:47;101276.34;;;11.95;66.59
48553;BME280;34335;51.566;6.994;2023-04-26T12:37:13;101276.44;;;12.30;55.72
48553;BME280;34335;51.566;6.994;2023-04-26T12:39:38;101262.47;;;12.95;69.75
48553;BME280;34335;51.566;6.994;2023-04-26T12:42:03;101270.25;;;13.24;62.75
48553;BME280;34335;51.566;6.994;2023-04-26T12:44:29;101267.72;;;12.58;53.26
48553;BME280;34335;51.566;6.994;2023-04-26T12:46:54;101268.56;;;12.94;62.04
48553;BME280;34335;51.566;6.994;2023-04-26T12:49:19;101273.81;;;12.17;58.26
48553;BME280;34335;51.566;6.994;2023-04-26T12:51:45;101270.34;;;12.28;55.99
48553;BME280;34335;51.566;6.994;2023-04-26T12:54:10;101272.06;;;12.28;56.48
48553;BME280;34335;51.566;6.994;2023-04-26T12:56:36;101264.16;;;13.30;61.47
48553;BME280;34335;51.566;6.994;2023-04-26T12:59:07;101272.88;;;11.99;51.99
48553;BME280;34335;51.566;6.994;2023-04-26T13:01:32;101275.44;;;13.43;66.58